Time;durP1;ratioP1;P1;durP2;ratioP2;P2;SDS_P1;SDS_P2;PMS_P1;PMS_P2;Temp;Humidity;BMP_temperature;BMP_pressure;BME280_temperature;BME280_humidity;BME280_pressure;Samples;Min_cycle;Max_cycle;Signal;HPM_P1;HPM_P2
2022/04/20 00:02:58;;;;;;;2.35;1.50;;;;;;;6.75;88.75;100794.00;6288839;28;20043;-96
2022/04/20 00:06:01;;;;;;;2.22;1.40;;;;;;;6.72;90.12;100791.63;6290715;28;20029;-96
2022/04/20 00:09:06;;;;;;;3.40;1.42;;;;;;;6.68;88.80;100796.09;6283743;28;20045;-96
2022/04/20 00:12:09;;;;;;;2.55;1.45;;;;;;;6.65;90.79;100791.97;6281671;28;20780;-96
2022/04/20 00:15:12;;;;;;;3.42;1.50;;;;;;;6.63;89.76;100790.41;6279065;28;20942;-96
2022/04/20 00:18:14;;;;;;;2.60;1.40;;;;;;;6.62;93.48;100797.28;6282595;28;20044;-96
2022/04/20 00:21:16;;;;;;;2.30;1.45;;;;;;;6.58;89.88;100795.81;6275567;28;20115;-96
2022/04/20 00:24:19;;;;;;;1.55;1.38;;;;;;;6.58;93.08;100800.13;6283375;28;20051;-96
2022/04/20 00:27:22;;;;;;;1.98;1.50;;;;;;;6.54;92.10;100801.25;6272995;28;20078;-96
2022/04/20 00:30:25;;;;;;;2.65;1.70;;;;;;;6.49;93.71;100798.09;6281157;28;20767;-96
2022/04/20 00:33:29;;;;;;;1.63;1.33;;;;;;;6.42;92.54;100805.34;6279418;28;20175;-96
2022/04/20 00:36:32;;;;;;;2.53;1.30;;;;;;;6.37;96.57;100802.19;6296015;28;20036;-96
2022/04/20 00:39:37;;;;;;;2.53;1.45;;;;;;;6.33;97.79;100804.09;6280845;28;20631;-96
2022/04/20 00:42:41;;;;;;;3.42;1.52;;;;;;;6.30;96.45;100808.59;6286272;28;20064;-96
2022/04/20 00:45:46;;;;;;;2.85;1.60;;;;;;;6.28;98.13;100802.72;6282679;28;20560;-96
2022/04/20 00:48:51;;;;;;;3.83;1.77;;;;;;;6.23;98.37;100810.69;6296841;28;20143;-96
2022/04/20 00:51:58;;;;;;;2.25;1.58;;;;;;;6.19;99.44;100814.34;6265873;28;20075;-96
2022/04/20 00:55:04;;;;;;;3.40;1.60;;;;;;;6.14;96.38;100814.59;6299168;28;20163;-96
2022/04/20 00:58:09;;;;;;;2.85;1.70;;;;;;;6.14;100.00;100812.03;6289990;28;20044;-96
2022/04/20 01:01:14;;;;;;;2.47;1.40;;;;;;;6.09;100.00;100811.47;6269318;28;20044;-96
2022/04/20 01:04:18;;;;;;;2.35;1.73;;;;;;;5.98;99.25;100811.22;6259991;28;20052;-96
2022/04/20 01:07:47;;;;;;;2.28;1.45;;;;;;;5.97;99.44;100812.16;6275387;28;20052;-96
2022/04/20 01:11:07;;;;;;;;;;;;;;;5.96;99.66;100813.88;6295972;28;20052;-96
2022/04/20 01:14:21;;;;;;;6.00;3.67;;;;;;;5.96;100.00;100813.88;6293573;28;19963;-96
2022/04/20 01:17:42;;;;;;;;;;;;;;;5.97;100.00;100814.72;6279384;28;20048;-96
2022/04/20 01:21:19;;;;;;;3.22;1.75;;;;;;;5.95;100.00;100811.41;6293021;28;19924;-96
2022/04/20 01:24:45;;;;;;;4.65;2.17;;;;;;;5.94;99.69;100804.63;6281847;28;20406;-96
2022/04/20 01:28:23;;;;;;;5.15;3.20;;;;;;;5.93;99.45;100803.72;6177611;28;20050;-96
2022/04/20 01:31:41;;;;;;;4.00;1.98;;;;;;;5.91;99.20;100795.28;6167474;28;20504;-96
2022/04/20 01:35:02;;;;;;;2.63;1.65;;;;;;;5.88;100.00;100794.63;6179237;28;20535;-96
2022/04/20 01:38:04;;;;;;;2.83;1.70;;;;;;;5.82;98.94;100794.06;6285375;28;20051;-96
2022/04/20 01:41:07;;;;;;;1.65;1.52;;;;;;;5.82;100.00;100798.38;6292823;28;20817;-96
2022/04/20 01:44:13;;;;;;;2.72;1.40;;;;;;;5.81;100.00;100799.25;6266729;28;20051;-96
2022/04/20 01:47:37;;;;;;;2.92;1.77;;;;;;;5.78;100.00;100799.44;6299698;28;20139;-96
2022/04/20 01:54:28;;;;;;;2.80;1.45;;;;;;;5.49;100.00;100808.69;6278651;28;20056;-96
2022/04/20 01:57:53;;;;;;;2.50;1.65;;;;;;;5.33;100.00;100803.56;6289373;28;20513;-96
2022/04/20 02:04:35;;;;;;;5.35;1.88;;;;;;;5.08;100.00;100798.88;6278513;28;20826;-96
2022/04/20 02:07:38;;;;;;;3.17;1.90;;;;;;;4.96;100.00;100808.84;6264948;28;20159;-96
2022/04/20 02:10:41;;;;;;;2.13;1.83;;;;;;;4.90;100.00;100805.78;6281127;28;20063;-96
2022/04/20 02:13:44;;;;;;;2.35;2.10;;;;;;;4.90;100.00;100804.03;6288485;28;20048;-96
2022/04/20 02:16:54;;;;;;;2.27;1.87;;;;;;;4.82;100.00;100808.75;6281342;28;20041;-96
2022/04/20 02:20:14;;;;;;;3.33;1.95;;;;;;;4.80;100.00;100807.97;6308707;28;20060;-96
2022/04/20 02:23:18;;;;;;;3.45;2.35;;;;;;;4.82;100.00;100813.00;6276061;28;20640;-96
2022/04/20 02:26:28;;;;;;;2.83;1.92;;;;;;;4.84;100.00;100803.53;6262038;28;20195;-96
2022/04/20 02:29:31;;;;;;;4.85;2.10;;;;;;;4.82;100.00;100811.31;6260411;28;20052;-96
2022/04/20 02:32:39;;;;;;;4.13;1.83;;;;;;;4.86;100.00;100810.22;6280351;28;20816;-96
2022/04/20 02:35:43;;;;;;;2.13;1.92;;;;;;;4.87;100.00;100805.91;6274624;28;20040;-96
2022/04/20 02:38:46;;;;;;;3.45;2.15;;;;;;;4.88;100.00;100802.47;6274765;28;20056;-96
2022/04/20 02:41:50;;;;;;;4.30;2.05;;;;;;;4.88;100.00;100807.59;6256581;28;20075;-96
2022/04/20 02:44:52;;;;;;;3.97;2.03;;;;;;;4.89;100.00;100796.41;6260384;28;20045;-96
2022/04/20 02:48:00;;;;;;;2.03;1.70;;;;;;;4.87;100.00;100800.78;6278061;28;20064;-96
2022/04/20 02:51:03;;;;;;;2.03;1.83;;;;;;;4.81;100.00;100798.56;6279110;28;20093;-96
2022/04/20 02:54:07;;;;;;;2.85;2.03;;;;;;;4.67;100.00;100799.22;6267961;28;20051;-96
2022/04/20 02:57:12;;;;;;;2.30;1.65;;;;;;;4.51;100.00;100799.16;6278985;28;20040;-96
2022/04/20 03:00:16;;;;;;;3.75;1.90;;;;;;;4.39;100.00;100803.16;6258970;28;20041;-96
2022/04/20 03:03:28;;;;;;;2.30;1.67;;;;;;;4.31;100.00;100797.59;6284714;28;20036;-96
2022/04/20 03:06:37;;;;;;;1.98;1.65;;;;;;;4.31;100.00;100798.41;6255246;28;20603;-96
2022/04/20 03:09:54;;;;;;;2.72;2.28;;;;;;;4.31;100.00;100797.59;6265273;28;20139;-96
2022/04/20 03:13:01;;;;;;;4.38;1.95;;;;;;;4.30;100.00;100796.75;6265199;28;20190;-96
2022/04/20 03:16:06;;;;;;;3.63;2.00;;;;;;;4.31;100.00;100797.59;6279668;28;20044;-96
2022/04/20 03:19:12;;;;;;;3.22;2.05;;;;;;;4.28;100.00;100803.69;6265016;28;20143;-96
2022/04/20 03:22:14;;;;;;;4.00;2.20;;;;;;;4.33;100.00;100798.34;6290006;28;20041;-96
2022/04/20 03:25:18;;;;;;;2.90;2.17;;;;;;;4.31;100.00;100806.09;6294587;28;20040;-96
2022/04/20 03:28:58;;;;;;;3.65;1.88;;;;;;;4.35;100.00;100813.63;6189426;28;20046;-96
2022/04/20 03:32:08;;;;;;;2.47;1.95;;;;;;;4.32;100.00;100809.47;6238842;28;20465;-96
2022/04/20 03:35:14;;;;;;;2.30;2.10;;;;;;;4.32;100.00;100809.47;6290579;28;20036;-96
2022/04/20 03:38:17;;;;;;;2.17;1.83;;;;;;;4.27;100.00;100816.56;6288984;28;20056;-96
2022/04/20 03:41:27;;;;;;;4.20;2.03;;;;;;;4.19;100.00;100826.34;6269390;28;20502;-96
2022/04/20 03:44:31;;;;;;;6.25;2.10;;;;;;;4.11;100.00;100824.16;6282088;28;20145;-96
2022/04/20 03:47:35;;;;;;;3.33;2.05;;;;;;;4.02;100.00;100820.28;6284332;28;20048;-96
2022/04/20 03:50:38;;;;;;;2.97;2.00;;;;;;;3.97;100.00;100829.09;6287132;28;20072;-96
2022/04/20 03:53:41;;;;;;;3.17;2.00;;;;;;;3.89;100.00;100829.44;6313579;28;20047;-96
2022/04/20 04:00:13;;;;;;;2.38;2.05;;;;;;;3.77;100.00;100823.16;6285783;28;20120;-96
2022/04/20 04:03:23;;;;;;;3.85;1.90;;;;;;;3.82;100.00;100828.06;6292217;28;20694;-96
2022/04/20 04:06:28;;;;;;;2.28;1.88;;;;;;;3.89;100.00;100834.56;6272755;28;20036;-96
2022/04/20 04:09:33;;;;;;;3.38;2.00;;;;;;;3.89;100.00;100832.00;6286720;28;20047;-96
2022/04/20 04:12:36;;;;;;;2.38;1.90;;;;;;;3.91;100.00;100830.22;6295001;28;20048;-96
2022/04/20 04:16:25;;;;;;;5.97;2.60;;;;;;;3.91;100.00;100831.94;6266168;28;20076;-96
2022/04/20 04:19:28;;;;;;;2.85;2.20;;;;;;;3.91;100.00;100832.78;6248787;28;20178;-96
2022/04/20 04:22:37;;;;;;;6.10;2.50;;;;;;;3.98;100.00;100825.66;6262930;28;20068;-96
2022/04/20 04:25:58;;;;;;;3.15;2.13;;;;;;;3.96;100.00;100830.00;6272305;28;20123;-96
2022/04/20 04:29:10;;;;;;;3.05;2.22;;;;;;;3.93;100.00;100830.16;6267552;28;20049;-96
2022/04/20 04:32:13;;;;;;;4.32;2.05;;;;;;;3.90;100.00;100828.56;6260496;28;20060;-96
2022/04/20 04:35:15;;;;;;;3.45;2.40;;;;;;;3.89;100.00;100829.44;6243286;28;20045;-96
2022/04/20 04:38:18;;;;;;;2.30;2.08;;;;;;;3.86;100.00;100825.31;6270588;28;20040;-96
2022/04/20 04:41:20;;;;;;;3.70;2.58;;;;;;;3.83;100.00;100828.00;6256388;28;20045;-96
2022/04/20 04:44:23;;;;;;;2.75;2.45;;;;;;;3.81;100.00;100821.31;6228931;28;20610;-96
2022/04/20 04:50:52;;;;;;;3.22;2.20;;;;;;;3.75;100.00;100829.25;6240963;28;20056;-96
2022/04/20 04:53:55;;;;;;;2.72;2.30;;;;;;;3.73;100.00;100826.78;6267378;28;20578;-96
2022/04/20 04:57:09;;;;;;;4.65;2.47;;;;;;;3.73;100.00;100825.94;6259835;28;20037;-96
2022/04/20 05:00:16;;;;;;;6.22;3.00;;;;;;;3.69;100.00;100832.09;6257400;28;20032;-96
2022/04/20 05:03:38;;;;;;;5.10;2.75;;;;;;;3.73;100.00;100826.78;6278959;28;20053;-96
2022/04/20 05:06:44;;;;;;;4.88;2.30;;;;;;;3.75;100.00;100842.03;6237332;28;20100;-96
2022/04/20 05:10:10;;;;;;;5.80;2.60;;;;;;;3.77;100.00;100832.56;6260317;28;20059;-96
2022/04/20 05:13:14;;;;;;;6.00;2.60;;;;;;;3.80;100.00;100824.75;6244634;28;20048;-96
2022/04/20 05:16:16;;;;;;;3.08;2.15;;;;;;;3.84;100.00;100821.97;6245031;28;20041;-96
2022/04/20 05:19:29;;;;;;;2.53;2.30;;;;;;;3.88;100.00;100830.38;6247965;28;20077;-96
2022/04/20 05:22:37;;;;;;;3.95;2.65;;;;;;;3.89;100.00;100835.41;6271284;28;20687;-96
2022/04/20 05:25:40;;;;;;;4.30;2.30;;;;;;;3.93;100.00;100838.66;6262432;28;20056;-96
2022/04/20 05:28:51;;;;;;;5.43;2.30;;;;;;;3.98;100.00;100841.84;6249904;28;20056;-96
2022/04/20 05:31:55;;;;;;;3.20;2.50;;;;;;;4.03;100.00;100846.75;6258366;28;20053;-96
2022/04/20 05:35:01;;;;;;;3.78;2.35;;;;;;;4.08;100.00;100855.88;6258603;28;20045;-96
2022/04/20 05:41:40;;;;;;;5.82;2.65;;;;;;;4.18;100.00;100856.28;6242249;28;20053;-96
2022/04/20 05:44:48;;;;;;;6.00;2.58;;;;;;;4.23;100.00;100864.56;6272461;28;20086;-96
2022/04/20 05:47:52;;;;;;;4.28;2.78;;;;;;;4.34;100.00;100856.38;6279957;28;20049;-96
2022/04/20 05:50:55;;;;;;;5.20;2.75;;;;;;;4.42;100.00;100856.84;6276260;28;20060;-96
2022/04/20 05:54:01;;;;;;;6.00;2.70;;;;;;;4.46;100.00;100862.66;6265826;28;20080;-96
2022/04/20 05:57:07;;;;;;;3.45;2.72;;;;;;;4.45;100.00;100869.50;6257273;28;20052;-96
2022/04/20 06:00:19;;;;;;;4.30;2.60;;;;;;;4.54;100.00;100868.22;6279433;28;20033;-96
2022/04/20 06:03:45;;;;;;;4.80;2.75;;;;;;;4.62;100.00;100862.72;6271360;28;20110;-96
2022/04/20 06:07:07;;;;;;;6.15;3.13;;;;;;;4.68;100.00;100863.25;6252198;28;20041;-96
2022/04/20 06:10:29;;;;;;;4.57;2.92;;;;;;;4.80;100.00;100869.53;6283302;28;20060;-96
2022/04/20 06:13:36;;;;;;;3.47;2.97;;;;;;;4.87;100.00;100870.03;6250672;28;20040;-96
2022/04/20 06:16:45;;;;;;;3.97;2.70;;;;;;;4.96;100.00;100880.66;6276321;28;20036;-96
2022/04/20 06:19:55;;;;;;;6.20;3.15;;;;;;;5.09;100.00;100878.34;6247774;28;20037;-96
2022/04/20 06:23:33;;;;;;;5.82;2.97;;;;;;;5.15;100.00;100867.75;6242308;28;20091;-96
2022/04/20 06:26:54;;;;;;;6.20;3.03;;;;;;;5.27;100.00;100875.75;6233771;28;20065;-96
2022/04/20 06:29:57;;;;;;;6.38;2.90;;;;;;;5.38;100.00;100870.88;6231889;28;20049;-96
2022/04/20 06:33:36;;;;;;;3.80;2.53;;;;;;;5.48;100.00;100863.53;6193301;28;20038;-96
2022/04/20 06:36:58;;;;;;;3.63;2.83;;;;;;;5.57;99.63;100868.19;6202528;28;20041;-96
2022/04/20 06:40:27;;;;;;;8.73;3.67;;;;;;;5.77;100.00;100864.56;6166313;28;20051;-96
2022/04/20 06:44:02;;;;;;;10.27;3.53;;;;;;;5.90;100.00;100865.56;6143337;28;20066;-96
2022/04/20 06:47:22;;;;;;;6.10;3.22;;;;;;;6.10;100.00;100861.94;6144032;28;20046;-96
2022/04/20 06:51:05;;;;;;;7.55;4.10;;;;;;;6.32;99.88;100868.47;6110721;28;20052;-96
2022/04/20 07:01:11;;;;;;;4.22;3.22;;;;;;;7.00;98.48;100860.28;6277490;28;20045;-96
2022/04/20 07:04:14;;;;;;;6.90;3.53;;;;;;;7.19;97.51;100865.19;6272446;28;20079;-96
2022/04/20 07:07:50;;;;;;;6.75;3.45;;;;;;;7.33;92.09;100860.06;6271847;28;20198;-96
2022/04/20 07:11:18;;;;;;;7.13;3.05;;;;;;;7.44;94.32;100860.22;6284641;28;20045;-96
2022/04/20 07:14:27;;;;;;;7.32;3.70;;;;;;;7.55;95.61;100857.00;6301287;28;20676;-96
2022/04/20 07:17:37;;;;;;;6.72;3.10;;;;;;;7.64;94.36;100858.19;6255533;28;20048;-96
2022/04/20 07:21:03;;;;;;;4.70;2.88;;;;;;;7.79;94.18;100859.00;6275947;28;20097;-96
2022/04/20 07:24:20;;;;;;;3.60;2.85;;;;;;;7.95;91.38;100857.94;6279007;28;20048;-96
2022/04/20 07:27:36;;;;;;;4.57;3.17;;;;;;;8.23;90.13;100851.03;6289608;28;20147;-96
2022/04/20 07:31:04;;;;;;;4.22;2.63;;;;;;;8.55;87.30;100851.59;6293540;28;20044;-96
2022/04/20 07:34:30;;;;;;;6.07;3.50;;;;;;;9.06;86.23;100845.63;6317074;28;20044;-96
2022/04/20 07:37:39;;;;;;;5.35;3.33;;;;;;;9.36;80.11;100847.88;6293837;28;20049;-96
2022/04/20 07:41:17;;;;;;;;;;;;;;;;;;;;;
2022/04/20 07:45:14;;;;;;;5.45;3.03;;;;;;;9.81;80.86;100845.63;6235613;28;20394;-96
2022/04/20 07:48:45;;;;;;;4.57;3.40;;;;;;;9.86;75.85;100838.38;6291695;28;20052;-96
2022/04/20 07:52:21;;;;;;;6.72;3.85;;;;;;;9.67;78.49;100836.25;6286079;28;20052;-96
2022/04/20 07:55:47;;;;;;;6.40;3.47;;;;;;;9.59;78.14;100838.56;6292262;28;20057;-96
2022/04/20 07:59:16;;;;;;;4.15;2.85;;;;;;;9.73;78.43;100854.84;6300383;28;20108;-96
2022/04/20 08:02:43;;;;;;;6.47;3.35;;;;;;;9.89;78.00;100860.59;6292300;28;20045;-96
2022/04/20 08:05:59;;;;;;;7.22;3.30;;;;;;;9.99;77.16;100860.78;6283864;28;20040;-96
2022/04/20 08:09:09;;;;;;;5.05;3.13;;;;;;;10.18;70.40;100861.09;6273379;28;20044;-96
2022/04/20 08:12:24;;;;;;;8.50;3.88;;;;;;;10.06;75.77;100862.81;6299369;28;20139;-96
2022/04/20 08:16:00;;;;;;;5.00;3.90;;;;;;;10.44;73.66;100854.06;6293551;28;20071;-96
2022/04/20 08:19:14;;;;;;;6.05;3.03;;;;;;;10.75;71.98;100850.03;6280443;28;20054;-96
2022/04/20 08:22:41;;;;;;;7.47;3.63;;;;;;;11.16;70.48;100847.88;6300386;28;20264;-96
2022/04/20 08:26:01;;;;;;;5.22;3.00;;;;;;;11.43;67.17;100855.28;6287965;28;20052;-96
2022/04/20 08:29:14;;;;;;;6.13;3.20;;;;;;;11.55;65.38;100859.53;6289240;28;20110;-96
2022/04/20 08:32:24;;;;;;;4.32;3.05;;;;;;;11.96;62.50;100870.22;6273988;28;20044;-96
2022/04/20 08:35:27;;;;;;;8.25;3.72;;;;;;;12.22;62.08;100868.97;6276126;28;20648;-96
2022/04/20 08:38:33;;;;;;;8.55;3.78;;;;;;;12.43;62.68;100870.78;6291437;28;20037;-96
2022/04/20 08:41:36;;;;;;;4.40;3.58;;;;;;;12.48;59.09;100877.22;6274158;28;20048;-96
2022/04/20 08:44:50;;;;;;;5.70;3.72;;;;;;;12.44;58.47;100873.22;6275506;28;20040;-96
2022/04/20 08:47:56;;;;;;;5.07;3.15;;;;;;;12.34;54.23;100863.72;6291413;22;20049;-92
2022/04/20 08:51:02;;;;;;;7.07;3.70;;;;;;;11.78;57.94;100869.88;6258475;28;20060;-90
2022/04/20 08:54:04;;;;;;;5.38;3.13;;;;;;;11.34;60.71;100866.38;6265568;28;20040;-90
2022/04/20 08:57:15;;;;;;;9.13;4.10;;;;;;;10.99;62.46;100859.50;6258047;28;20044;-90
2022/04/20 09:00:22;;;;;;;4.85;3.15;;;;;;;10.82;63.94;100855.59;6259580;28;20052;-89
2022/04/20 09:03:25;;;;;;;3.63;3.10;;;;;;;10.79;64.02;100855.81;6259638;28;20060;-91
2022/04/20 09:06:27;;;;;;;4.72;3.72;;;;;;;10.69;61.54;100854.84;6265501;28;20053;-90
2022/04/20 09:09:30;;;;;;;3.85;3.15;;;;;;;10.63;60.85;100856.13;6270725;28;20044;-89
2022/04/20 09:12:32;;;;;;;5.70;3.80;;;;;;;10.63;60.82;100860.47;6262746;28;20044;-91
2022/04/20 09:15:36;;;;;;;6.00;3.13;;;;;;;10.48;61.46;100852.91;6273616;28;20033;-89
2022/04/20 09:18:40;;;;;;;6.22;3.22;;;;;;;10.46;63.35;100856.53;6242002;28;20067;-90
2022/04/20 09:21:42;;;;;;;3.85;2.92;;;;;;;10.57;64.06;100851.41;6259531;28;20700;-89
2022/04/20 09:25:14;;;;;;;3.03;2.50;;;;;;;10.63;63.80;100847.53;6261759;28;20155;-89
2022/04/20 09:28:16;;;;;;;5.45;2.85;;;;;;;10.77;63.54;100849.94;6263954;28;20048;-88
2022/04/20 09:31:44;;;;;;;5.57;3.10;;;;;;;10.94;63.78;100844.31;6267201;28;20057;-89
2022/04/20 09:34:59;;;;;;;3.45;3.10;;;;;;;11.18;60.59;100830.44;6266085;28;20048;-89
2022/04/20 09:38:07;;;;;;;4.68;2.83;;;;;;;11.21;61.55;100836.22;6266523;28;20405;-89
2022/04/20 09:41:33;;;;;;;6.35;3.10;;;;;;;11.30;61.06;100829.47;6272205;28;20119;-89
2022/04/20 09:44:39;;;;;;;6.35;2.92;;;;;;;11.48;59.18;100836.78;6262074;28;20607;-92
2022/04/20 09:51:20;;;;;;;2.50;2.30;;;;;;;11.66;59.78;100814.59;6263937;28;20052;-89
2022/04/20 09:54:29;;;;;;;4.05;2.85;;;;;;;11.84;58.61;100820.91;6264824;28;20600;-88
2022/04/20 09:57:32;;;;;;;4.45;2.67;;;;;;;11.99;61.09;100818.91;6264930;28;20065;-89
2022/04/20 10:00:38;;;;;;;4.35;2.50;;;;;;;12.13;59.88;100817.81;6257157;28;20646;-90
2022/04/20 10:03:40;;;;;;;5.50;2.63;;;;;;;12.32;59.85;100819.69;6269315;28;20041;-89
2022/04/20 10:06:43;;;;;;;3.10;2.47;;;;;;;12.45;59.87;100820.38;6264007;28;20615;-90
2022/04/20 10:09:45;;;;;;;3.83;2.30;;;;;;;12.52;58.60;100818.09;6263640;28;20056;-89
2022/04/20 10:12:51;;;;;;;4.07;2.42;;;;;;;12.67;57.80;100816.81;6267527;28;20048;-89
2022/04/20 10:16:06;;;;;;;3.55;2.33;;;;;;;12.75;57.83;100810.16;6267135;28;20040;-89
2022/04/20 10:19:13;;;;;;;4.82;2.85;;;;;;;12.82;56.35;100806.09;6267342;28;20052;-89
2022/04/20 10:22:18;;;;;;;3.25;2.60;;;;;;;12.82;56.91;100811.28;6261802;28;20037;-89
2022/04/20 10:25:21;;;;;;;3.58;2.53;;;;;;;12.89;57.44;100815.00;6263643;28;20505;-90
2022/04/20 10:28:30;;;;;;;3.28;2.33;;;;;;;13.01;56.18;100808.78;6256074;28;20041;-91
2022/04/20 10:31:54;;;;;;;6.05;2.45;;;;;;;13.09;55.82;100821.97;6263606;28;20485;-90
2022/04/20 10:34:58;;;;;;;3.75;2.53;;;;;;;13.19;55.86;100811.63;6234019;28;20846;-90
2022/04/20 10:38:18;;;;;;;3.78;2.95;;;;;;;13.24;55.16;100804.25;6263778;28;20048;-90
2022/04/20 10:41:29;;;;;;;5.13;2.97;;;;;;;13.43;58.14;100793.09;6273004;28;20375;-90
2022/04/20 10:44:51;;;;;;;4.72;3.15;;;;;;;13.75;59.03;100799.88;6252794;28;20049;-91
2022/04/20 10:47:56;;;;;;;7.15;3.13;;;;;;;13.90;56.88;100790.69;6260672;28;20127;-91
2022/04/20 10:51:16;;;;;;;5.60;3.30;;;;;;;13.99;55.77;100794.28;6273241;28;20052;-91
2022/04/20 10:54:29;;;;;;;4.25;2.70;;;;;;;14.04;57.00;100780.84;6239524;28;20045;-90
2022/04/20 10:57:36;;;;;;;4.45;2.33;;;;;;;14.11;52.15;100782.78;6265963;28;20044;-90
2022/04/20 11:00:38;;;;;;;3.50;1.95;;;;;;;14.16;54.93;100771.91;6255414;28;20136;-90
2022/04/20 11:03:55;;;;;;;3.63;2.00;;;;;;;14.27;53.58;100769.19;6254441;28;20573;-90
2022/04/20 11:07:01;;;;;;;4.78;2.60;;;;;;;14.43;52.64;100772.03;6261962;28;20052;-90
2022/04/20 11:10:10;;;;;;;5.93;2.60;;;;;;;14.43;53.48;100759.03;6262106;28;20037;-90
2022/04/20 11:21:04;;;;;;;5.38;2.80;;;;;;;14.86;55.42;100743.84;6247571;28;20498;-91
2022/04/20 11:24:07;;;;;;;5.05;2.97;;;;;;;14.99;53.37;100743.50;6254369;28;20418;-90
2022/04/20 11:27:11;;;;;;;5.07;2.75;;;;;;;15.13;54.34;100748.25;6258797;28;20063;-90
2022/04/20 11:30:14;;;;;;;3.60;2.50;;;;;;;15.18;54.94;100750.38;6261126;28;20045;-90
2022/04/20 11:33:16;;;;;;;4.70;2.55;;;;;;;15.25;51.21;100746.22;6260751;28;20041;-90
2022/04/20 11:36:19;;;;;;;4.18;2.35;;;;;;;15.27;49.48;100739.91;6264006;28;20045;-90
2022/04/20 11:39:29;;;;;;;3.55;2.15;;;;;;;15.41;49.18;100737.78;6271883;28;20055;-90
2022/04/20 11:42:32;;;;;;;;;;;;;;;15.56;50.62;100738.09;6263216;28;21386;-90
2022/04/20 11:45:34;;;;;;;4.53;2.80;;;;;;;15.73;49.96;100739.09;6263432;28;19924;-90
2022/04/20 11:48:37;;;;;;;7.10;2.70;;;;;;;15.82;48.04;100738.19;6272101;28;20524;-90
2022/04/20 11:51:59;;;;;;;3.78;2.60;;;;;;;15.85;49.75;100728.28;6260835;28;20049;-89
2022/04/20 11:55:06;;;;;;;4.57;2.90;;;;;;;16.05;50.96;100726.31;6268948;28;20508;-90
2022/04/20 11:58:16;;;;;;;2.95;2.40;;;;;;;16.17;49.69;100728.66;6252585;28;20041;-89
2022/04/20 12:01:22;;;;;;;3.13;2.65;;;;;;;16.24;48.77;100727.91;6266454;28;20049;-90
2022/04/20 12:04:27;;;;;;;4.80;2.63;;;;;;;16.36;47.13;100729.28;6269944;28;20489;-87
2022/04/20 12:07:32;;;;;;;3.63;2.63;;;;;;;16.53;48.07;100724.16;6265281;28;20529;-91
2022/04/20 12:10:34;;;;;;;4.32;2.85;;;;;;;16.70;46.90;100722.47;6276700;28;20033;-90
2022/04/20 12:13:37;;;;;;;3.90;3.05;;;;;;;16.93;46.29;100722.75;6269389;28;20166;-90
2022/04/20 12:16:40;;;;;;;5.05;2.72;;;;;;;17.13;47.22;100721.50;6268155;28;20045;-92
2022/04/20 12:19:46;;;;;;;5.60;3.10;;;;;;;17.39;46.31;100715.34;6259756;28;20414;-90
2022/04/20 12:22:48;;;;;;;5.60;3.22;;;;;;;17.64;45.80;100721.44;6258503;28;20558;-90
2022/04/20 12:25:54;;;;;;;5.05;3.50;;;;;;;17.75;45.59;100713.25;6253857;28;20037;-90
2022/04/20 12:29:05;;;;;;;4.95;3.15;;;;;;;18.11;45.11;100702.47;6259986;28;20045;-90
2022/04/20 12:32:07;;;;;;;5.68;3.03;;;;;;;18.47;42.91;100696.81;6263024;28;20044;-90
2022/04/20 12:35:09;;;;;;;6.10;3.00;;;;;;;18.72;43.93;100689.69;6270156;28;20052;-90
2022/04/20 12:38:19;;;;;;;3.75;3.20;;;;;;;18.97;44.01;100685.16;6275910;28;20426;-90
2022/04/20 12:41:42;;;;;;;3.22;2.92;;;;;;;19.31;42.12;100682.16;6277464;28;20049;-90
2022/04/20 12:44:52;;;;;;;5.07;3.00;;;;;;;19.35;42.07;100674.75;6267253;28;20045;-91
2022/04/20 12:48:04;;;;;;;3.92;3.50;;;;;;;18.79;41.86;100674.94;6267902;28;20041;-90
2022/04/20 12:51:19;;;;;;;4.50;3.00;;;;;;;18.18;42.45;100681.66;6253199;28;20045;-95
2022/04/20 12:54:25;;;;;;;7.50;3.17;;;;;;;17.46;44.74;100679.69;6268006;28;20403;-90
2022/04/20 13:04:10;;;;;;;7.45;2.80;;;;;;;17.76;45.70;100672.16;6250799;28;20045;-90
2022/04/20 13:07:12;;;;;;;23.10;7.03;;;;;;;18.21;45.26;100661.19;6259518;28;20144;-90
2022/04/20 13:10:22;;;;;;;35.80;9.90;;;;;;;18.66;43.39;100656.28;6249143;28;20321;-90
2022/04/20 13:13:25;;;;;;;5.57;2.42;;;;;;;19.06;42.57;100649.22;6253818;28;20497;-89
2022/04/20 13:16:31;;;;;;;3.10;1.90;;;;;;;19.27;38.45;100656.44;6250125;28;20401;-90
2022/04/20 13:19:33;;;;;;;2.67;1.80;;;;;;;19.52;39.88;100654.44;6246969;28;20124;-90
2022/04/20 13:22:35;;;;;;;3.30;1.75;;;;;;;19.88;37.74;100653.84;6244233;28;20686;-90
2022/04/20 13:28:57;;;;;;;2.30;1.50;;;;;;;19.88;34.36;100644.16;6254412;28;20429;-90
2022/04/20 13:31:59;;;;;;;3.33;1.42;;;;;;;19.95;32.54;100637.19;6259827;28;20048;-90
2022/04/20 13:35:01;;;;;;;3.72;1.27;;;;;;;20.22;35.53;100642.81;6249238;28;20122;-90
2022/04/20 13:38:06;;;;;;;1.60;1.10;;;;;;;20.55;35.92;100634.59;6239617;28;20046;-90
2022/04/20 13:41:08;;;;;;;4.50;1.30;;;;;;;20.27;34.82;100640.44;6250918;28;20734;-90
2022/04/20 13:44:10;;;;;;;3.03;1.65;;;;;;;19.87;33.01;100647.75;6245591;28;21173;-92
2022/04/20 13:47:12;;;;;;;2.13;1.20;;;;;;;19.91;33.76;100633.28;6251284;28;20364;-92
2022/04/20 13:50:14;;;;;;;3.00;1.48;;;;;;;20.20;32.86;100636.94;6248464;28;20051;-89
2022/04/20 13:53:16;;;;;;;3.55;1.33;;;;;;;20.09;33.97;100634.75;6257307;28;20438;-89
2022/04/20 13:56:18;;;;;;;4.32;1.40;;;;;;;19.90;33.54;100639.53;6252737;28;20519;-89
2022/04/20 13:59:20;;;;;;;2.88;1.40;;;;;;;20.16;34.73;100640.91;6257155;28;20561;-89
2022/04/20 14:02:23;;;;;;;2.17;1.00;;;;;;;20.44;32.68;100644.50;6254607;28;20391;-91
2022/04/20 14:05:27;;;;;;;1.30;1.20;;;;;;;20.39;33.49;100636.34;6242507;28;20052;-90
2022/04/20 14:08:29;;;;;;;6.80;1.23;;;;;;;20.35;33.00;100635.13;6256904;28;20142;-90
2022/04/20 14:11:32;;;;;;;2.40;1.20;;;;;;;20.34;34.06;100635.28;6249147;28;20076;-91
2022/04/20 14:14:34;;;;;;;1.27;1.17;;;;;;;20.15;33.80;100634.03;6246976;28;20041;-90
2022/04/20 14:17:36;;;;;;;1.77;1.20;;;;;;;20.30;31.03;100634.84;6237352;28;20053;-90
2022/04/20 14:20:42;;;;;;;2.67;1.52;;;;;;;20.64;31.18;100628.19;6248645;28;20642;-92
2022/04/20 14:23:44;;;;;;;1.65;0.95;;;;;;;20.63;31.25;100632.66;6247513;28;20668;-90
2022/04/20 14:33:28;;;;;;;;;;;;;;;21.23;31.92;100641.16;6236566;28;20037;-89
2022/04/20 14:36:29;;;;;;;2.65;1.02;;;;;;;21.30;30.17;100639.41;6232922;28;20293;-90
2022/04/20 14:39:32;;;;;;;2.92;1.20;;;;;;;21.25;33.58;100641.81;6245208;28;20032;-89
2022/04/20 14:42:35;;;;;;;2.08;1.00;;;;;;;21.36;31.38;100643.09;6254165;28;20588;-89
2022/04/20 14:45:39;;;;;;;1.05;0.95;;;;;;;21.01;32.08;100635.06;6241373;28;20414;-90
2022/04/20 14:48:42;;;;;;;2.42;1.17;;;;;;;20.75;32.54;100635.63;6240974;28;20171;-90
2022/04/20 14:51:46;;;;;;;1.33;1.20;;;;;;;20.13;34.36;100630.78;6254499;28;20418;-89
2022/04/20 14:54:48;;;;;;;1.75;1.48;;;;;;;19.91;32.85;100633.28;6247751;28;20041;-90
2022/04/20 14:58:11;;;;;;;2.65;1.27;;;;;;;20.15;33.10;100629.59;6244675;28;20052;-90
2022/04/20 15:01:13;;;;;;;3.33;1.38;;;;;;;20.51;32.26;100633.28;6246684;28;20044;-89
2022/04/20 15:04:16;;;;;;;2.60;1.35;;;;;;;20.95;32.51;100635.03;6241476;28;20056;-91
2022/04/20 15:07:18;;;;;;;6.18;1.52;;;;;;;21.30;30.60;100628.06;6252834;28;20045;-89
2022/04/20 15:10:25;;;;;;;1.33;1.13;;;;;;;21.52;30.59;100623.63;6247230;28;20072;-89
2022/04/20 15:13:27;;;;;;;3.63;1.30;;;;;;;21.60;32.00;100625.31;6259720;28;20064;-90
2022/04/20 15:16:34;;;;;;;3.88;1.23;;;;;;;21.52;31.68;100615.72;6257829;28;20052;-89
2022/04/20 15:19:36;;;;;;;1.50;1.20;;;;;;;21.31;30.83;100616.53;6250932;28;20915;-89
2022/04/20 15:22:38;;;;;;;1.20;0.90;;;;;;;21.09;30.10;100613.09;6259229;28;20047;-89
2022/04/20 15:25:41;;;;;;;3.25;1.20;;;;;;;21.10;32.10;100614.72;6256414;28;20738;-89
2022/04/20 15:28:43;;;;;;;3.30;1.15;;;;;;;21.00;31.21;100608.97;6253765;28;20186;-89
2022/04/20 15:31:45;;;;;;;2.50;1.30;;;;;;;20.82;32.54;100610.22;6257219;28;20059;-90
2022/04/20 15:34:47;;;;;;;2.97;1.30;;;;;;;20.68;30.89;100605.78;6259357;28;20062;-89
2022/04/20 15:37:50;;;;;;;1.42;0.93;;;;;;;20.69;31.08;100607.41;6256002;28;20033;-89
2022/04/20 15:40:55;;;;;;;2.97;1.35;;;;;;;20.77;32.61;100606.47;6259248;28;20619;-90